createdAt,value
2022-12-27T00:01:17.481Z,14.77
2022-12-27T00:03:45.976Z,13.25
2022-12-27T00:06:16.532Z,13.77
2022-12-27T00:08:45.151Z,13.50
2022-12-27T00:11:16.097Z,12.38
2022-12-27T00:13:43.314Z,13.77
2022-12-27T00:16:14.391Z,12.70
2022-12-27T00:18:42.805Z,13.45
2022-12-27T00:21:12.279Z,13.18
2022-12-27T00:23:42.224Z,12.88
2022-12-27T00:26:17.747Z,14.25
2022-12-27T00:28:45.492Z,12.60
2022-12-27T00:31:14.573Z,13.65
2022-12-27T00:33:43.871Z,12.40
2022-12-27T00:36:15.470Z,12.05
2022-12-27T00:38:43.116Z,14.18
2022-12-27T00:41:11.439Z,12.20
2022-12-27T00:43:38.770Z,11.50
2022-12-27T00:46:06.886Z,11.73
2022-12-27T00:48:34.560Z,10.48
2022-12-27T00:51:27.097Z,10.55
2022-12-27T00:54:16.933Z,9.20
2022-12-27T00:56:44.513Z,10.63
2022-12-27T00:59:12.440Z,10.73
2022-12-27T01:01:41.325Z,10.63
2022-12-27T01:04:08.814Z,9.95
2022-12-27T01:06:37.259Z,11.00
2022-12-27T01:09:06.562Z,10.85
2022-12-27T01:11:34.950Z,10.95
2022-12-27T01:14:03.828Z,10.63
2022-12-27T01:16:32.217Z,9.23
2022-12-27T01:18:59.956Z,10.05
2022-12-27T01:21:30.954Z,9.70
2022-12-27T01:23:59.164Z,10.15
2022-12-27T01:26:26.790Z,9.30
2022-12-27T01:28:55.016Z,9.85
2022-12-27T01:31:25.521Z,10.13
2022-12-27T01:33:57.914Z,10.55
2022-12-27T01:36:28.254Z,8.85
2022-12-27T01:38:59.231Z,8.93
2022-12-27T01:41:49.458Z,10.38
2022-12-27T01:44:43.677Z,9.23
2022-12-27T01:47:22.299Z,8.38
2022-12-27T01:50:05.673Z,8.77
2022-12-27T01:52:49.410Z,9.35
2022-12-27T01:55:22.490Z,8.55
2022-12-27T01:57:52.513Z,7.68
2022-12-27T02:00:22.477Z,7.43
2022-12-27T02:02:52.560Z,8.18
2022-12-27T02:05:24.031Z,8.38
2022-12-27T02:08:19.761Z,7.60
2022-12-27T02:10:46.994Z,6.95
2022-12-27T02:13:16.885Z,6.90
2022-12-27T02:15:43.954Z,6.97
2022-12-27T02:18:11.432Z,7.13
2022-12-27T02:21:07.194Z,7.30
2022-12-27T02:24:03.882Z,7.23
2022-12-27T02:26:37.186Z,6.65
2022-12-27T02:29:25.392Z,6.70
2022-12-27T02:31:57.675Z,5.95
2022-12-27T02:34:30.621Z,7.32
2022-12-27T02:37:03.325Z,6.85
2022-12-27T02:39:34.081Z,7.20
2022-12-27T02:42:21.872Z,6.85
2022-12-27T02:45:18.748Z,6.50
2022-12-27T02:48:06.329Z,7.60
2022-12-27T02:51:15.692Z,7.43
2022-12-27T02:53:52.767Z,7.07
2022-12-27T02:56:56.205Z,6.78
2022-12-27T02:59:38.663Z,6.30
2022-12-27T03:03:06.220Z,6.95
2022-12-27T03:05:35.537Z,6.15
2022-12-27T03:08:24.304Z,4.80
2022-12-27T03:11:27.812Z,4.57
2022-12-27T03:14:40.584Z,4.30
2022-12-27T03:17:14.943Z,3.55
2022-12-27T03:20:09.218Z,3.42
2022-12-27T03:23:15.449Z,3.92
2022-12-27T03:25:44.439Z,4.85
2022-12-27T03:28:45.586Z,4.55
2022-12-27T03:31:43.824Z,3.97
2022-12-27T03:34:33.367Z,4.10
2022-12-27T03:37:43.710Z,4.20
2022-12-27T03:40:34.727Z,4.38
2022-12-27T03:43:13.908Z,4.68
2022-12-27T03:46:30.786Z,5.25
2022-12-27T03:49:17.055Z,5.82
2022-12-27T03:52:16.524Z,6.07
2022-12-27T03:54:45.935Z,5.72
2022-12-27T03:57:21.519Z,9.90
2022-12-27T03:59:49.122Z,11.13
2022-12-27T04:02:16.688Z,11.63
2022-12-27T04:04:44.329Z,9.88
2022-12-27T04:07:14.261Z,11.32
2022-12-27T04:10:02.353Z,11.10
2022-12-27T04:12:48.156Z,10.30
2022-12-27T04:15:35.487Z,11.05
2022-12-27T04:18:21.165Z,10.88
2022-12-27T04:21:07.556Z,13.77
2022-12-27T04:23:53.484Z,13.43
2022-12-27T04:26:39.498Z,13.88
2022-12-27T04:29:25.531Z,14.60
2022-12-27T04:32:11.417Z,13.95
2022-12-27T04:34:46.752Z,13.55
2022-12-27T04:37:18.034Z,13.82
2022-12-27T04:40:05.397Z,13.57
2022-12-27T04:42:53.756Z,14.60
2022-12-27T04:45:39.873Z,13.85
2022-12-27T04:48:32.020Z,13.70
2022-12-27T04:51:18.492Z,12.50
2022-12-27T04:54:04.804Z,14.38
2022-12-27T04:56:33.103Z,12.73
2022-12-27T04:59:18.970Z,14.35
2022-12-27T05:02:04.236Z,14.98
2022-12-27T05:04:35.220Z,13.27
2022-12-27T05:07:23.146Z,14.35
2022-12-27T05:10:10.805Z,14.35
2022-12-27T05:13:03.993Z,11.68
2022-12-27T05:15:32.830Z,14.13
2022-12-27T05:17:59.976Z,13.80
2022-12-27T05:20:27.755Z,13.50
2022-12-27T05:23:13.796Z,12.55
2022-12-27T05:25:43.480Z,12.20
2022-12-27T05:28:12.539Z,12.90
2022-12-27T05:30:43.225Z,12.68
2022-12-27T05:33:12.268Z,15.38
2022-12-27T05:35:41.715Z,14.15
2022-12-27T05:38:08.988Z,13.20
2022-12-27T05:40:37.029Z,11.02
2022-12-27T05:43:06.056Z,12.50
2022-12-27T05:45:34.758Z,8.40
2022-12-27T05:48:02.907Z,8.32
2022-12-27T05:50:30.347Z,8.68
2022-12-27T05:53:12.204Z,8.15
2022-12-27T05:55:39.924Z,7.53
2022-12-27T05:58:07.177Z,6.65
2022-12-27T06:00:34.895Z,6.10
2022-12-27T06:03:03.363Z,6.57
2022-12-27T06:05:31.007Z,7.60
2022-12-27T06:07:58.599Z,6.75
2022-12-27T06:10:25.998Z,6.10
2022-12-27T06:12:54.120Z,7.15
2022-12-27T06:15:23.232Z,7.15
2022-12-27T06:17:50.662Z,7.55
2022-12-27T06:20:18.291Z,7.90
2022-12-27T06:22:45.783Z,7.63
2022-12-27T06:25:14.425Z,16.38
2022-12-27T06:27:42.277Z,7.55
2022-12-27T06:30:12.343Z,5.03
2022-12-27T06:32:39.737Z,8.45
2022-12-27T06:35:07.455Z,6.68
2022-12-27T06:37:35.150Z,74.28
2022-12-27T06:40:03.861Z,49.28
2022-12-27T06:42:33.295Z,12.35
2022-12-27T06:45:00.893Z,8.32
2022-12-27T06:47:28.031Z,8.10
2022-12-27T06:49:55.972Z,7.35
2022-12-27T06:52:23.544Z,6.40
2022-12-27T06:54:50.950Z,7.05
2022-12-27T06:57:18.049Z,7.32
2022-12-27T06:59:51.005Z,10.40
2022-12-27T07:02:21.281Z,6.95
2022-12-27T07:04:49.257Z,8.52
2022-12-27T07:07:17.890Z,8.02
2022-12-27T07:09:45.499Z,8.48
2022-12-27T07:12:13.165Z,9.45
2022-12-27T07:14:40.666Z,9.90
2022-12-27T07:17:07.794Z,10.02
2022-12-27T07:19:36.815Z,10.45
2022-12-27T07:22:03.897Z,9.32
2022-12-27T07:24:33.365Z,8.57
2022-12-27T07:27:02.232Z,10.02
2022-12-27T07:29:29.920Z,11.23
2022-12-27T07:31:58.219Z,8.52
2022-12-27T07:34:26.230Z,10.35
2022-12-27T07:36:54.489Z,10.48
2022-12-27T07:39:23.677Z,11.55
2022-12-27T07:41:51.004Z,12.95
2022-12-27T07:44:19.252Z,11.07
2022-12-27T07:46:47.186Z,11.70
2022-12-27T07:49:17.942Z,11.95
2022-12-27T07:51:45.408Z,13.82
2022-12-27T07:54:13.812Z,10.20
2022-12-27T07:56:41.987Z,11.38
2022-12-27T07:59:11.895Z,20.75
2022-12-27T08:02:01.878Z,30.55
2022-12-27T08:04:29.583Z,17.13
2022-12-27T08:07:15.036Z,16.23
2022-12-27T08:09:44.358Z,14.10
2022-12-27T08:12:14.108Z,15.90
2022-12-27T08:14:42.448Z,19.20
2022-12-27T08:17:24.100Z,21.45
2022-12-27T08:19:53.255Z,18.40
2022-12-27T08:22:23.827Z,18.85
2022-12-27T08:24:51.635Z,31.85
2022-12-27T08:27:25.464Z,21.70
2022-12-27T08:29:53.268Z,20.98
2022-12-27T08:32:20.979Z,18.75
2022-12-27T08:34:48.386Z,19.13
2022-12-27T08:37:16.001Z,20.67
2022-12-27T08:39:44.956Z,20.05
2022-12-27T08:42:14.157Z,24.95
2022-12-27T08:44:41.751Z,18.75
2022-12-27T08:47:08.793Z,16.30
2022-12-27T08:49:36.257Z,16.83
2022-12-27T08:52:03.614Z,21.42
2022-12-27T08:54:32.614Z,30.05
2022-12-27T08:56:59.728Z,27.33
2022-12-27T08:59:27.124Z,20.73
2022-12-27T09:01:54.682Z,25.00
2022-12-27T09:04:24.500Z,21.38
2022-12-27T09:06:51.692Z,24.88
2022-12-27T09:09:19.176Z,26.20
2022-12-27T09:11:46.928Z,26.58
2022-12-27T09:14:14.317Z,19.67
2022-12-27T09:16:42.623Z,44.78
2022-12-27T09:19:10.140Z,27.33
2022-12-27T09:21:41.192Z,20.58
2022-12-27T09:24:12.871Z,20.48
2022-12-27T09:26:40.584Z,28.95
2022-12-27T09:29:08.113Z,26.05
2022-12-27T09:31:35.176Z,24.00
2022-12-27T09:34:02.649Z,22.27
2022-12-27T09:36:30.077Z,21.45
2022-12-27T09:38:59.064Z,24.35
2022-12-27T09:42:44.415Z,22.75
2022-12-27T09:44:32.368Z,21.80
2022-12-27T09:47:08.677Z,21.02
2022-12-27T09:50:04.724Z,26.35
2022-12-27T09:52:32.379Z,24.52
2022-12-27T09:55:15.068Z,28.75
2022-12-27T09:57:45.280Z,30.80
2022-12-27T10:00:34.145Z,29.52
2022-12-27T10:03:06.506Z,25.02
2022-12-27T10:05:37.404Z,26.98
2022-12-27T10:08:35.214Z,27.67
2022-12-27T10:11:38.846Z,28.63
2022-12-27T10:14:18.433Z,21.88
2022-12-27T10:16:52.984Z,25.90
2022-12-27T10:19:38.438Z,26.52
2022-12-27T10:22:23.508Z,20.63
2022-12-27T10:24:55.047Z,21.42
2022-12-27T10:27:26.069Z,19.13
2022-12-27T10:29:58.323Z,21.20
2022-12-27T10:32:26.609Z,22.33
2022-12-27T10:35:01.287Z,21.73
2022-12-27T10:37:29.234Z,21.58
2022-12-27T10:40:17.169Z,24.42
2022-12-27T10:42:52.917Z,23.25
2022-12-27T10:45:39.628Z,24.50
2022-12-27T10:49:10.918Z,19.27
2022-12-27T10:51:25.839Z,21.90
2022-12-27T10:54:05.089Z,19.70
2022-12-27T10:56:41.663Z,20.58
2022-12-27T10:59:30.811Z,22.60
2022-12-27T11:02:01.853Z,23.02
2022-12-27T11:04:31.460Z,24.67
2022-12-27T11:07:02.275Z,28.10
2022-12-27T11:09:35.613Z,28.33
2022-12-27T11:12:28.768Z,25.90
2022-12-27T11:14:56.242Z,23.83
2022-12-27T11:17:50.988Z,23.55
2022-12-27T11:20:23.649Z,25.63
2022-12-27T11:22:56.653Z,24.60
2022-12-27T11:25:28.501Z,21.98
2022-12-27T11:28:04.607Z,20.13
2022-12-27T11:30:35.374Z,21.23
2022-12-27T11:33:07.178Z,21.92
2022-12-27T11:35:47.931Z,20.17
2022-12-27T11:38:30.236Z,20.80
2022-12-27T11:41:26.115Z,18.83
2022-12-27T11:43:58.514Z,18.67
2022-12-27T11:46:58.720Z,18.70
2022-12-27T11:49:34.356Z,18.45
2022-12-27T11:52:17.179Z,17.83
2022-12-27T11:55:15.247Z,21.38
2022-12-27T11:57:52.984Z,18.33
2022-12-27T12:00:23.945Z,21.83
2022-12-27T12:02:54.782Z,19.40
2022-12-27T12:05:44.184Z,18.48
2022-12-27T12:08:21.502Z,22.63
2022-12-27T12:11:26.839Z,21.27
2022-12-27T12:13:57.067Z,19.92
2022-12-27T12:16:53.543Z,23.60
2022-12-27T12:19:39.372Z,28.35
2022-12-27T12:22:18.429Z,17.17
2022-12-27T12:24:52.004Z,20.40
2022-12-27T12:27:38.636Z,19.95
2022-12-27T12:30:30.795Z,22.67
2022-12-27T12:33:19.062Z,23.83
2022-12-27T12:35:56.073Z,22.92
2022-12-27T12:38:34.238Z,20.33
2022-12-27T12:41:25.500Z,12.88
2022-12-27T12:44:24.658Z,13.73
2022-12-27T12:47:27.375Z,14.13
2022-12-27T12:50:31.907Z,13.05
2022-12-27T12:53:02.390Z,16.60
2022-12-27T12:55:48.432Z,14.50
2022-12-27T12:58:18.893Z,13.30
2022-12-27T13:01:25.806Z,13.95
2022-12-27T13:04:01.924Z,10.88
2022-12-27T13:06:44.451Z,11.70
2022-12-27T13:09:26.048Z,14.02
2022-12-27T13:12:22.769Z,16.27
2022-12-27T13:15:05.185Z,14.35
2022-12-27T13:18:22.691Z,17.50
2022-12-27T13:21:04.105Z,12.95
2022-12-27T13:23:52.711Z,15.38
2022-12-27T13:26:57.036Z,14.40
2022-12-27T13:29:45.649Z,15.95
2022-12-27T13:32:44.299Z,15.80
2022-12-27T13:35:40.657Z,13.10
2022-12-27T13:38:13.981Z,9.70
2022-12-27T13:40:57.972Z,12.85
2022-12-27T13:43:54.746Z,7.93
2022-12-27T13:46:34.162Z,8.82
2022-12-27T13:49:22.630Z,10.77
2022-12-27T13:51:52.109Z,9.80
2022-12-27T13:54:22.627Z,11.60
2022-12-27T13:57:11.962Z,13.23
2022-12-27T13:59:45.116Z,11.82
2022-12-27T14:02:37.875Z,12.63
2022-12-27T14:05:33.442Z,7.57
2022-12-27T14:08:22.893Z,8.60
2022-12-27T14:10:58.589Z,8.32
2022-12-27T14:13:42.021Z,13.73
2022-12-27T14:16:21.583Z,9.10
2022-12-27T14:19:00.868Z,9.02
2022-12-27T14:21:46.617Z,11.90
2022-12-27T14:24:41.388Z,10.55
2022-12-27T14:27:47.504Z,8.25
2022-12-27T14:33:02.993Z,6.15
2022-12-27T14:35:51.828Z,6.22
2022-12-27T14:38:49.936Z,7.65
2022-12-27T14:41:28.827Z,7.95
2022-12-27T14:44:43.496Z,7.18
2022-12-27T14:47:16.857Z,8.05
2022-12-27T14:50:18.953Z,8.50
2022-12-27T14:53:14.385Z,8.00
2022-12-27T14:56:03.696Z,7.28
2022-12-27T14:58:52.251Z,8.32
2022-12-27T15:01:51.032Z,12.77
2022-12-27T15:04:18.300Z,10.90
2022-12-27T15:07:30.002Z,8.20
2022-12-27T15:10:40.686Z,8.63
2022-12-27T15:13:28.320Z,8.50
2022-12-27T15:16:14.875Z,8.75
2022-12-27T15:19:18.520Z,10.10
2022-12-27T15:22:10.144Z,27.05
2022-12-27T15:24:47.428Z,20.48
2022-12-27T15:27:20.425Z,33.00
2022-12-27T15:30:38.838Z,24.20
2022-12-27T15:33:23.412Z,36.90
2022-12-27T15:38:27.076Z,39.97
2022-12-27T15:41:09.552Z,29.45
2022-12-27T15:44:07.838Z,30.77
2022-12-27T15:47:07.588Z,30.73
2022-12-27T15:49:57.285Z,26.42
2022-12-27T15:52:45.418Z,16.40
2022-12-27T15:55:21.858Z,15.70
2022-12-27T15:58:23.092Z,15.90
2022-12-27T16:01:25.296Z,12.35
2022-12-27T16:03:55.379Z,13.05
2022-12-27T16:06:34.634Z,9.98
2022-12-27T16:09:23.590Z,27.30
2022-12-27T16:12:07.618Z,21.88
2022-12-27T16:14:40.505Z,13.88
2022-12-27T16:17:13.887Z,11.82
2022-12-27T16:19:47.511Z,10.90
2022-12-27T16:22:37.347Z,22.58
2022-12-27T16:25:21.321Z,18.77
2022-12-27T16:28:16.974Z,18.90
2022-12-27T16:30:44.449Z,15.00
2022-12-27T16:33:27.123Z,14.95
2022-12-27T16:36:12.720Z,15.18
2022-12-27T16:38:45.378Z,12.50
2022-12-27T16:41:25.079Z,11.63
2022-12-27T16:44:01.671Z,15.55
2022-12-27T16:46:45.270Z,14.45
2022-12-27T16:49:23.324Z,15.68
2022-12-27T16:52:02.915Z,13.50
2022-12-27T16:54:54.929Z,10.18
2022-12-27T16:57:25.493Z,9.35
2022-12-27T17:00:12.260Z,9.98
2022-12-27T17:02:46.625Z,11.93
2022-12-27T17:05:17.074Z,8.93
2022-12-27T17:07:54.080Z,9.65
2022-12-27T17:10:52.482Z,10.70
2022-12-27T17:13:22.656Z,9.25
2022-12-27T17:15:58.240Z,10.50
2022-12-27T17:18:30.435Z,15.65
2022-12-27T17:21:11.460Z,13.48
2022-12-27T17:23:41.781Z,13.95
2022-12-27T17:26:26.842Z,13.07
2022-12-27T17:29:31.859Z,11.80
2022-12-27T17:32:32.984Z,10.05
2022-12-27T17:35:13.968Z,9.57
2022-12-27T17:37:44.141Z,9.05
2022-12-27T17:40:21.143Z,9.35
2022-12-27T17:43:22.187Z,6.07
2022-12-27T17:45:58.915Z,6.57
2022-12-27T17:48:29.543Z,7.63
2022-12-27T17:51:11.186Z,8.35
2022-12-27T17:54:10.400Z,9.88
2022-12-27T17:57:15.325Z,8.88
2022-12-27T17:59:45.010Z,10.35
2022-12-27T18:02:35.863Z,15.60
2022-12-27T18:05:07.412Z,13.88
2022-12-27T18:07:35.483Z,17.30
2022-12-27T18:10:25.508Z,9.90
2022-12-27T18:13:00.946Z,9.98
2022-12-27T18:18:03.428Z,8.63
2022-12-27T18:20:40.624Z,7.68
2022-12-27T18:23:14.423Z,7.65
2022-12-27T18:25:45.351Z,8.48
2022-12-27T18:28:15.593Z,7.40
2022-12-27T18:30:55.463Z,6.55
2022-12-27T18:33:35.542Z,7.22
2022-12-27T18:36:05.962Z,8.32
2022-12-27T18:38:38.761Z,9.88
2022-12-27T18:41:13.240Z,7.72
2022-12-27T18:43:45.190Z,9.25
2022-12-27T18:46:19.164Z,9.05
2022-12-27T18:48:47.030Z,10.07
2022-12-27T18:51:14.358Z,11.38
2022-12-27T18:53:44.027Z,8.98
2022-12-27T18:56:24.081Z,10.63
2022-12-27T18:59:23.209Z,10.02
2022-12-27T19:01:50.829Z,8.23
2022-12-27T19:04:29.164Z,12.20
2022-12-27T19:07:14.155Z,15.50
2022-12-27T19:09:49.865Z,16.33
2022-12-27T19:12:26.843Z,18.38
2022-12-27T19:14:57.337Z,10.15
2022-12-27T19:17:30.881Z,12.57
2022-12-27T19:22:47.989Z,18.40
2022-12-27T19:25:31.205Z,14.63
2022-12-27T19:28:07.205Z,8.57
2022-12-27T19:31:04.056Z,10.73
2022-12-27T19:33:34.788Z,10.65
2022-12-27T19:36:09.580Z,9.65
2022-12-27T19:38:47.545Z,10.05
2022-12-27T19:41:15.759Z,10.27
2022-12-27T19:43:46.944Z,16.70
2022-12-27T19:46:15.353Z,18.30
2022-12-27T19:48:43.968Z,11.40
2022-12-27T19:51:20.440Z,11.05
2022-12-27T19:53:57.951Z,13.00
2022-12-27T19:56:27.074Z,15.63
2022-12-27T19:58:54.317Z,14.25
2022-12-27T20:01:22.205Z,11.43
2022-12-27T20:03:49.878Z,12.43
2022-12-27T20:06:24.074Z,11.45
2022-12-27T20:08:53.958Z,14.25
2022-12-27T20:11:22.731Z,11.98
2022-12-27T20:13:51.228Z,11.80
2022-12-27T20:16:21.707Z,11.95
2022-12-27T20:18:48.882Z,9.77
2022-12-27T20:21:18.431Z,11.98
2022-12-27T20:23:46.923Z,12.13
2022-12-27T20:26:21.255Z,10.65
2022-12-27T20:28:49.056Z,9.02
2022-12-27T20:31:19.477Z,10.27
2022-12-27T20:33:52.314Z,11.48
2022-12-27T20:36:23.404Z,12.00
2022-12-27T20:38:50.910Z,13.45
2022-12-27T20:41:20.338Z,17.02
2022-12-27T20:43:47.734Z,11.38
2022-12-27T20:46:17.910Z,13.20
2022-12-27T20:48:46.761Z,15.30
2022-12-27T20:51:18.688Z,15.57
2022-12-27T20:53:49.196Z,13.68
2022-12-27T20:56:18.476Z,12.13
2022-12-27T20:58:45.630Z,12.02
2022-12-27T21:01:17.998Z,10.95
2022-12-27T21:03:48.713Z,18.50
2022-12-27T21:06:19.381Z,22.15
2022-12-27T21:08:54.132Z,11.73
2022-12-27T21:11:34.627Z,13.60
2022-12-27T21:14:04.265Z,12.40
2022-12-27T21:16:33.806Z,13.15
2022-12-27T21:19:04.896Z,10.52
2022-12-27T21:21:37.141Z,9.65
2022-12-27T21:24:07.016Z,9.18
2022-12-27T21:26:37.258Z,18.45
2022-12-27T21:29:06.388Z,12.75
2022-12-27T21:31:35.197Z,10.90
2022-12-27T21:34:05.206Z,12.25
2022-12-27T21:36:34.288Z,10.00
2022-12-27T21:39:02.240Z,9.27
2022-12-27T21:41:40.312Z,9.65
2022-12-27T21:44:08.410Z,8.05
2022-12-27T21:46:45.143Z,9.43
2022-12-27T21:49:20.547Z,15.77
2022-12-27T21:51:51.010Z,12.45
2022-12-27T21:54:18.399Z,11.93
2022-12-27T21:56:48.319Z,12.93
2022-12-27T21:59:18.118Z,15.18
2022-12-27T22:02:11.155Z,9.27
2022-12-27T22:04:38.982Z,10.50
2022-12-27T22:07:07.860Z,12.15
2022-12-27T22:09:37.149Z,10.55
2022-12-27T22:12:06.308Z,11.75
2022-12-27T22:14:37.091Z,13.98
2022-12-27T22:17:05.397Z,14.40
2022-12-27T22:19:33.890Z,12.45
2022-12-27T22:22:03.437Z,16.85
2022-12-27T22:24:31.657Z,14.52
2022-12-27T22:27:00.477Z,15.23
2022-12-27T22:29:34.850Z,16.08
2022-12-27T22:32:04.213Z,13.88
2022-12-27T22:34:38.312Z,17.52
2022-12-27T22:37:05.866Z,23.63
2022-12-27T22:39:33.977Z,20.13
2022-12-27T22:42:04.268Z,19.70
2022-12-27T22:44:32.740Z,16.92
2022-12-27T22:49:54.393Z,9.77
2022-12-27T22:52:25.426Z,7.40
2022-12-27T22:55:06.078Z,7.38
2022-12-27T22:57:40.223Z,7.13
2022-12-27T23:00:14.531Z,6.80
2022-12-27T23:02:45.423Z,6.80
2022-12-27T23:05:19.977Z,6.15
2022-12-27T23:08:04.858Z,7.22
2022-12-27T23:10:36.354Z,7.18
2022-12-27T23:13:07.418Z,8.82
2022-12-27T23:15:35.619Z,7.95
2022-12-27T23:18:04.515Z,7.80
2022-12-27T23:20:37.338Z,7.85
2022-12-27T23:23:07.290Z,8.05
2022-12-27T23:25:36.363Z,7.25
2022-12-27T23:28:05.361Z,7.47
2022-12-27T23:30:36.743Z,7.90
2022-12-27T23:33:04.865Z,6.97
2022-12-27T23:35:39.182Z,7.78
2022-12-27T23:38:08.147Z,7.13
2022-12-27T23:40:36.242Z,6.97
2022-12-27T23:43:33.296Z,7.18
2022-12-27T23:45:56.084Z,8.60
2022-12-27T23:48:27.569Z,8.65
2022-12-27T23:50:58.759Z,8.85
2022-12-27T23:53:27.661Z,8.40
2022-12-27T23:56:03.370Z,8.23
2022-12-27T23:58:32.501Z,9.93
